Atlantic, Pennsylvania
Current Conditions -  °F | °C
As of 3:53 AM on Sunday 23 Nov 2014 (Local Time) from KGKJ Reporting Station
Overcast Overcast  
Wind Chill: 40°   Ceiling: 3500
Heat Index: 45°   Visibility: 10mi
Dew Point: 30°   Wind: 10mph
Humidity: 56%   Direction: 200°SSW
Pressure: 30.04"   Gusts: NA
Location:  41.5°N, 80.33°W
Report Text: KGKJ 230853Z AUTO 20009KT 10SM OVC035 07/M01 A3004 RMK AO2 SLP179 T00721011 58004 TSNO
Loading
Personal Weather Stations






























Interactive Weather Map New forecast layout! Learn more

10-Day Weather Forecast

Advertisements
Track Severe Weather on mobile